createdAt,value
2018-10-16T00:00:19.206Z,15.37
2018-10-16T00:02:48.439Z,16.00
2018-10-16T00:05:18.550Z,16.37
2018-10-16T00:07:47.396Z,16.17
2018-10-16T00:10:21.269Z,18.33
2018-10-16T00:12:50.099Z,16.57
2018-10-16T00:15:18.810Z,15.90
2018-10-16T00:17:48.509Z,17.53
2018-10-16T00:20:17.337Z,15.17
2018-10-16T00:22:46.175Z,15.53
2018-10-16T00:25:16.793Z,16.17
2018-10-16T00:27:45.633Z,15.87
2018-10-16T00:30:14.369Z,16.27
2018-10-16T00:32:43.248Z,15.00
2018-10-16T00:35:12.558Z,16.00
2018-10-16T00:37:41.364Z,15.77
2018-10-16T00:40:10.685Z,15.47
2018-10-16T00:44:08.500Z,17.57
2018-10-16T00:46:37.540Z,15.60
2018-10-16T00:49:06.406Z,15.80
2018-10-16T00:51:35.270Z,15.80
2018-10-16T00:54:04.070Z,16.50
2018-10-16T00:56:32.764Z,16.53
2018-10-16T00:59:01.562Z,16.83
2018-10-16T01:01:31.921Z,15.23
2018-10-16T01:04:02.732Z,15.60
2018-10-16T01:06:32.136Z,15.10
2018-10-16T01:09:00.864Z,14.93
2018-10-16T01:11:29.725Z,15.57
2018-10-16T01:13:59.149Z,16.93
2018-10-16T01:16:28.354Z,15.50
2018-10-16T01:18:57.164Z,17.10
2018-10-16T01:21:25.973Z,18.50
2018-10-16T01:23:54.700Z,17.10
2018-10-16T01:26:23.377Z,18.17
2018-10-16T01:28:52.132Z,16.73
2018-10-16T01:31:20.825Z,16.63
2018-10-16T01:33:53.190Z,16.50
2018-10-16T01:36:23.863Z,17.87
2018-10-16T01:38:53.853Z,18.37
2018-10-16T01:41:24.091Z,18.57
2018-10-16T01:43:54.085Z,18.07
2018-10-16T01:46:22.756Z,19.17
2018-10-16T01:48:51.369Z,17.63
2018-10-16T01:51:20.151Z,18.53
2018-10-16T01:53:49.004Z,19.13
2018-10-16T01:56:17.821Z,18.77
2018-10-16T01:58:51.116Z,18.50
2018-10-16T02:01:20.488Z,19.23
2018-10-16T02:03:49.325Z,18.80
2018-10-16T02:06:18.133Z,18.27
2018-10-16T02:08:47.885Z,17.67
2018-10-16T02:11:16.856Z,19.43
2018-10-16T02:13:45.698Z,18.40
2018-10-16T02:16:16.036Z,19.00
2018-10-16T02:18:46.623Z,17.73
2018-10-16T02:21:17.300Z,17.37
2018-10-16T02:23:47.928Z,17.87
2018-10-16T02:26:19.851Z,17.37
2018-10-16T02:28:50.937Z,18.10
2018-10-16T02:31:19.628Z,16.33
2018-10-16T02:33:48.358Z,16.37
2018-10-16T02:36:17.149Z,15.13
2018-10-16T02:38:48.637Z,14.33
2018-10-16T02:41:18.311Z,14.00
2018-10-16T02:43:47.193Z,13.93
2018-10-16T02:46:16.037Z,15.63
2018-10-16T02:48:44.741Z,17.50
2018-10-16T02:51:13.441Z,17.23
2018-10-16T02:53:42.001Z,15.23
2018-10-16T02:56:10.708Z,14.77
2018-10-16T02:58:39.502Z,14.03
2018-10-16T03:01:08.843Z,13.70
2018-10-16T03:03:39.751Z,13.90
2018-10-16T03:06:08.493Z,13.23
2018-10-16T03:08:38.048Z,13.77
2018-10-16T03:11:06.908Z,13.90
2018-10-16T03:13:35.678Z,13.43
2018-10-16T03:16:04.394Z,14.17
2018-10-16T03:18:33.067Z,15.20
2018-10-16T03:21:01.765Z,16.67
2018-10-16T03:23:30.491Z,20.03
2018-10-16T03:25:59.092Z,19.53
2018-10-16T03:28:27.887Z,18.10
2018-10-16T03:30:56.669Z,23.03
2018-10-16T03:33:25.326Z,20.10
2018-10-16T03:35:53.908Z,19.30
2018-10-16T03:38:24.048Z,19.40
2018-10-16T03:40:54.264Z,18.47
2018-10-16T03:43:23.889Z,20.27
2018-10-16T03:45:52.605Z,19.23
2018-10-16T03:48:21.275Z,18.20
2018-10-16T03:50:49.841Z,19.13
2018-10-16T03:53:18.520Z,19.37
2018-10-16T03:55:47.105Z,19.40
2018-10-16T03:58:16.005Z,21.70
2018-10-16T04:00:44.619Z,23.07
2018-10-16T04:03:14.457Z,21.73
2018-10-16T04:05:43.158Z,22.13
2018-10-16T04:08:11.820Z,20.70
2018-10-16T04:10:40.537Z,19.97
2018-10-16T04:13:09.229Z,20.87
2018-10-16T04:15:37.877Z,18.70
2018-10-16T04:18:06.512Z,19.87
2018-10-16T04:20:35.337Z,20.13
2018-10-16T04:23:03.924Z,21.07
2018-10-16T04:25:32.610Z,21.40
2018-10-16T04:28:01.159Z,23.43
2018-10-16T04:30:29.830Z,20.53
2018-10-16T04:32:58.705Z,23.33
2018-10-16T04:35:27.311Z,21.60
2018-10-16T04:37:56.027Z,20.53
2018-10-16T04:40:24.812Z,21.40
2018-10-16T04:42:53.418Z,22.10
2018-10-16T04:45:22.074Z,22.47
2018-10-16T04:47:50.640Z,24.03
2018-10-16T04:50:19.189Z,22.70
2018-10-16T04:52:48.017Z,20.30
2018-10-16T04:55:16.750Z,20.23
2018-10-16T04:57:45.438Z,21.63
2018-10-16T05:00:14.218Z,20.17
2018-10-16T05:02:43.635Z,22.07
2018-10-16T05:05:24.508Z,26.23
2018-10-16T05:08:00.845Z,22.90
2018-10-16T05:10:29.674Z,22.20
2018-10-16T05:12:58.526Z,22.43
2018-10-16T05:15:34.276Z,21.20
2018-10-16T05:18:03.242Z,21.80
2018-10-16T05:20:32.443Z,21.40
2018-10-16T05:23:02.184Z,21.03
2018-10-16T05:25:31.520Z,22.43
2018-10-16T05:28:04.368Z,21.80
2018-10-16T05:30:33.991Z,22.07
2018-10-16T05:33:02.921Z,25.00
2018-10-16T05:35:31.768Z,25.60
2018-10-16T05:38:01.011Z,24.13
2018-10-16T05:40:30.672Z,22.77
2018-10-16T05:43:01.829Z,23.83
2018-10-16T05:45:33.521Z,23.00
2018-10-16T05:48:03.019Z,24.43
2018-10-16T05:50:31.955Z,20.43
2018-10-16T05:53:01.530Z,23.43
2018-10-16T05:55:30.423Z,22.43
2018-10-16T05:57:59.282Z,19.13
2018-10-16T06:00:40.551Z,22.30
2018-10-16T06:03:13.814Z,23.00
2018-10-16T06:05:45.463Z,22.47
2018-10-16T06:08:14.482Z,23.00
2018-10-16T06:10:43.330Z,19.73
2018-10-16T06:13:14.777Z,21.77
2018-10-16T06:15:44.681Z,20.57
2018-10-16T06:18:13.512Z,19.17
2018-10-16T06:20:42.125Z,16.53
2018-10-16T06:23:11.050Z,30.33
2018-10-16T06:25:39.926Z,22.53
2018-10-16T06:28:16.220Z,17.43
2018-10-16T06:30:44.961Z,17.23
2018-10-16T06:33:14.583Z,20.00
2018-10-16T06:35:43.522Z,16.33
2018-10-16T06:38:12.273Z,17.43
2018-10-16T06:40:40.896Z,17.13
2018-10-16T06:43:09.755Z,18.17
2018-10-16T06:45:38.641Z,21.50
2018-10-16T06:48:07.847Z,17.60
2018-10-16T06:50:36.672Z,95.23
2018-10-16T06:53:09.926Z,85.83
2018-10-16T06:55:38.934Z,28.20
2018-10-16T06:58:08.284Z,16.47
2018-10-16T07:00:37.117Z,18.47
2018-10-16T07:03:06.700Z,20.90
2018-10-16T07:05:35.438Z,20.17
2018-10-16T07:08:04.330Z,21.37
2018-10-16T07:10:33.028Z,18.93
2018-10-16T07:13:02.067Z,19.43
2018-10-16T07:15:30.911Z,15.93
2018-10-16T07:17:59.807Z,16.87
2018-10-16T07:20:28.649Z,15.47
2018-10-16T07:22:57.481Z,17.75
2018-10-16T07:25:26.344Z,20.45
2018-10-16T07:27:55.145Z,13.32
2018-10-16T07:30:23.891Z,12.47
2018-10-16T07:33:00.486Z,12.60
2018-10-16T07:35:30.420Z,13.62
2018-10-16T07:37:59.341Z,12.25
2018-10-16T07:40:28.179Z,11.05
2018-10-16T07:42:57.884Z,11.45
2018-10-16T07:45:27.371Z,10.55
2018-10-16T07:47:56.211Z,11.18
2018-10-16T07:50:24.994Z,12.30
2018-10-16T07:52:53.846Z,12.25
2018-10-16T07:55:22.688Z,12.47
2018-10-16T07:57:51.485Z,12.85
2018-10-16T08:00:20.395Z,13.18
2018-10-16T08:02:49.349Z,12.15
2018-10-16T08:05:18.169Z,11.57
2018-10-16T08:07:47.042Z,12.78
2018-10-16T08:10:15.941Z,14.23
2018-10-16T08:12:44.726Z,13.20
2018-10-16T08:15:13.689Z,12.28
2018-10-16T08:17:42.734Z,12.73
2018-10-16T08:20:11.363Z,12.03
2018-10-16T08:22:40.181Z,12.10
2018-10-16T08:25:09.042Z,11.95
2018-10-16T08:27:37.969Z,12.63
2018-10-16T08:30:08.399Z,11.83
2018-10-16T08:32:37.173Z,12.05
2018-10-16T08:35:06.433Z,13.48
2018-10-16T08:39:50.172Z,14.78
2018-10-16T08:43:38.080Z,13.72
2018-10-16T08:46:17.803Z,12.78
2018-10-16T08:48:58.152Z,13.80
2018-10-16T08:51:36.255Z,15.68
2018-10-16T08:54:05.117Z,13.05
2018-10-16T08:56:34.104Z,12.90
2018-10-16T08:59:03.282Z,13.90
2018-10-16T09:01:32.174Z,15.13
2018-10-16T09:04:01.877Z,13.50
2018-10-16T09:06:30.950Z,13.55
2018-10-16T09:08:59.779Z,14.53
2018-10-16T09:11:29.139Z,14.95
2018-10-16T09:13:57.946Z,13.45
2018-10-16T09:16:26.718Z,14.95
2018-10-16T09:18:55.528Z,15.13
2018-10-16T09:21:24.273Z,15.08
2018-10-16T09:23:59.065Z,13.60
2018-10-16T09:26:35.305Z,13.38
2018-10-16T09:29:06.571Z,14.10
2018-10-16T09:31:37.273Z,14.33
2018-10-16T09:34:06.064Z,14.03
2018-10-16T09:36:34.693Z,14.30
2018-10-16T09:39:03.893Z,14.20
2018-10-16T09:41:32.745Z,14.60
2018-10-16T09:44:01.584Z,13.80
2018-10-16T09:46:30.505Z,12.73
2018-10-16T09:48:59.428Z,13.85
2018-10-16T09:51:28.217Z,14.47
2018-10-16T09:53:57.177Z,14.00
2018-10-16T09:56:26.018Z,13.70
2018-10-16T09:58:56.722Z,13.88
2018-10-16T10:01:30.650Z,14.13
2018-10-16T10:04:00.610Z,14.13
2018-10-16T10:06:29.586Z,14.75
2018-10-16T10:08:58.624Z,14.55
2018-10-16T10:11:29.004Z,14.78
2018-10-16T10:13:57.891Z,14.78
2018-10-16T10:16:32.485Z,14.53
2018-10-16T10:19:01.421Z,14.78
2018-10-16T10:21:30.157Z,14.30
2018-10-16T10:23:59.048Z,14.73
2018-10-16T10:26:27.753Z,14.03
2018-10-16T10:28:57.498Z,15.18
2018-10-16T10:31:26.603Z,14.45
2018-10-16T10:33:55.333Z,14.93
2018-10-16T10:36:24.255Z,13.43
2018-10-16T10:38:53.140Z,14.07
2018-10-16T10:41:21.891Z,14.03
2018-10-16T10:43:50.912Z,15.08
2018-10-16T10:46:19.761Z,15.08
2018-10-16T10:48:48.468Z,14.70
2018-10-16T10:51:17.394Z,15.38
2018-10-16T10:53:45.999Z,14.60
2018-10-16T10:56:14.710Z,15.30
2018-10-16T10:58:43.431Z,14.40
2018-10-16T11:01:12.289Z,14.40
2018-10-16T11:03:41.259Z,14.55
2018-10-16T11:06:09.740Z,14.45
2018-10-16T11:08:38.577Z,14.90
2018-10-16T11:11:14.679Z,14.73
2018-10-16T11:13:43.607Z,15.10
2018-10-16T11:16:12.685Z,15.67
2018-10-16T11:18:41.392Z,14.67
2018-10-16T11:21:10.324Z,14.70
2018-10-16T11:23:39.174Z,14.90
2018-10-16T11:26:08.074Z,14.77
2018-10-16T11:28:39.421Z,15.17
2018-10-16T11:31:08.175Z,15.60
2018-10-16T11:33:37.004Z,15.73
2018-10-16T11:36:05.733Z,16.47
2018-10-16T11:38:34.573Z,16.63
2018-10-16T11:41:03.257Z,15.30
2018-10-16T11:43:32.044Z,16.03
2018-10-16T11:46:00.861Z,15.23
2018-10-16T11:48:29.623Z,15.37
2018-10-16T11:50:58.525Z,15.97
2018-10-16T11:53:27.384Z,16.83
2018-10-16T11:55:58.247Z,15.47
2018-10-16T11:58:26.977Z,14.73
2018-10-16T12:00:55.756Z,16.20
2018-10-16T12:03:24.375Z,15.73
2018-10-16T12:05:53.240Z,16.37
2018-10-16T12:08:22.162Z,16.17
2018-10-16T12:10:51.701Z,16.23
2018-10-16T12:13:20.362Z,17.43
2018-10-16T12:15:49.072Z,17.37
2018-10-16T12:18:31.736Z,16.93
2018-10-16T12:21:30.768Z,18.67
2018-10-16T12:23:59.559Z,18.50
2018-10-16T12:26:28.506Z,18.40
2018-10-16T12:28:57.386Z,17.07
2018-10-16T12:31:26.452Z,16.97
2018-10-16T12:33:55.047Z,17.03
2018-10-16T12:36:23.907Z,18.20
2018-10-16T12:38:52.690Z,15.97
2018-10-16T12:41:21.345Z,16.67
2018-10-16T12:43:50.138Z,17.40
2018-10-16T12:46:18.682Z,18.23
2018-10-16T12:48:47.579Z,17.60
2018-10-16T12:51:16.591Z,17.83
2018-10-16T12:53:45.322Z,18.00
2018-10-16T12:56:15.273Z,16.33
2018-10-16T12:58:44.012Z,17.37
2018-10-16T13:01:12.636Z,17.30
2018-10-16T13:03:41.560Z,18.40
2018-10-16T13:06:10.252Z,17.50
2018-10-16T13:08:39.088Z,16.50
2018-10-16T13:11:07.852Z,16.53
2018-10-16T13:13:36.531Z,17.67
2018-10-16T13:16:05.478Z,15.58
2018-10-16T13:18:34.130Z,17.57
2018-10-16T13:21:02.850Z,17.12
2018-10-16T13:23:31.724Z,16.62
2018-10-16T13:26:00.411Z,16.20
2018-10-16T13:28:29.129Z,16.07
2018-10-16T13:30:57.974Z,16.87
2018-10-16T13:33:26.810Z,15.93
2018-10-16T13:35:56.309Z,16.80
2018-10-16T13:38:25.197Z,15.43
2018-10-16T13:40:53.861Z,18.87
2018-10-16T13:43:22.809Z,15.63
2018-10-16T13:45:51.699Z,17.32
2018-10-16T13:48:20.521Z,17.50
2018-10-16T13:50:49.141Z,17.90
2018-10-16T13:53:17.827Z,16.90
2018-10-16T13:55:46.603Z,17.20
2018-10-16T13:58:15.293Z,16.87
2018-10-16T14:00:43.885Z,16.40
2018-10-16T14:03:12.725Z,17.13
2018-10-16T14:05:41.616Z,16.17
2018-10-16T14:08:10.253Z,17.65
2018-10-16T14:10:38.927Z,18.12
2018-10-16T14:13:07.635Z,16.10
2018-10-16T14:15:36.357Z,16.32
2018-10-16T14:18:05.458Z,18.37
2018-10-16T14:20:34.224Z,17.62
2018-10-16T14:23:02.792Z,18.42
2018-10-16T14:25:31.597Z,15.83
2018-10-16T14:28:00.431Z,16.60
2018-10-16T14:30:29.178Z,16.48
2018-10-16T14:32:57.752Z,16.10
2018-10-16T14:35:26.461Z,19.42
2018-10-16T14:37:55.318Z,15.58
2018-10-16T14:40:24.092Z,16.97
2018-10-16T14:42:52.908Z,17.15
2018-10-16T14:45:21.489Z,17.73
2018-10-16T14:47:50.177Z,18.37
2018-10-16T14:50:18.877Z,16.20
2018-10-16T14:52:47.675Z,17.00
2018-10-16T14:55:16.266Z,18.12
2018-10-16T14:57:45.014Z,16.45
2018-10-16T15:00:14.132Z,17.35
2018-10-16T15:02:42.811Z,17.02
2018-10-16T15:05:12.590Z,17.57
2018-10-16T15:07:41.473Z,17.37
2018-10-16T15:10:10.617Z,17.10
2018-10-16T15:12:39.153Z,17.60
2018-10-16T15:15:08.732Z,17.43
2018-10-16T15:17:37.534Z,18.33
2018-10-16T15:20:08.658Z,18.97
2018-10-16T15:22:37.235Z,18.13
2018-10-16T15:25:07.421Z,17.80
2018-10-16T15:27:36.209Z,17.93
2018-10-16T15:30:07.173Z,17.83
2018-10-16T15:32:35.890Z,16.27
2018-10-16T15:35:06.965Z,20.50
2018-10-16T15:37:36.040Z,20.00
2018-10-16T15:40:09.998Z,18.53
2018-10-16T15:42:39.063Z,17.33
2018-10-16T15:45:09.520Z,16.90
2018-10-16T15:47:38.786Z,18.40
2018-10-16T15:50:11.281Z,16.80
2018-10-16T15:52:41.316Z,15.87
2018-10-16T15:55:11.542Z,17.73
2018-10-16T15:57:40.491Z,17.30
2018-10-16T16:00:17.270Z,17.60
2018-10-16T16:02:48.314Z,16.87
2018-10-16T16:05:17.183Z,18.20
2018-10-16T16:07:46.030Z,23.53
2018-10-16T16:10:16.038Z,22.30
2018-10-16T16:12:45.162Z,18.57
2018-10-16T16:15:16.961Z,19.37
2018-10-16T16:17:45.747Z,21.23
2018-10-16T16:20:15.339Z,18.47
2018-10-16T16:22:44.524Z,19.20
2018-10-16T16:25:14.316Z,23.20
2018-10-16T16:27:43.162Z,21.93
2018-10-16T16:30:14.676Z,21.20
2018-10-16T16:32:43.424Z,21.73
2018-10-16T16:35:12.233Z,22.03
2018-10-16T16:37:40.946Z,20.07
2018-10-16T16:40:11.446Z,23.97
2018-10-16T16:42:39.985Z,27.47
2018-10-16T16:45:09.664Z,24.07
2018-10-16T16:47:38.515Z,25.03
2018-10-16T16:50:08.707Z,22.40
2018-10-16T16:52:37.508Z,20.63
2018-10-16T16:55:07.881Z,21.00
2018-10-16T16:57:36.587Z,21.00
2018-10-16T17:00:05.338Z,20.33
2018-10-16T17:02:34.178Z,17.87
2018-10-16T17:05:02.974Z,19.57
2018-10-16T17:07:31.804Z,23.53
2018-10-16T17:10:00.623Z,22.70
2018-10-16T17:12:29.441Z,18.97
2018-10-16T17:14:58.240Z,22.50
2018-10-16T17:17:27.089Z,30.07
2018-10-16T17:19:55.825Z,23.13
2018-10-16T17:22:24.591Z,18.53
2018-10-16T17:24:53.449Z,22.30
2018-10-16T17:27:21.981Z,17.67
2018-10-16T17:29:50.785Z,18.93
2018-10-16T17:32:19.472Z,17.17
2018-10-16T17:34:48.207Z,19.60
2018-10-16T17:37:16.918Z,16.40
2018-10-16T17:39:45.575Z,17.63
2018-10-16T17:42:14.402Z,17.83
2018-10-16T17:44:43.058Z,17.83
2018-10-16T17:47:11.420Z,19.90
2018-10-16T17:49:40.225Z,22.67
2018-10-16T17:52:08.934Z,22.07
2018-10-16T17:54:37.712Z,23.97
2018-10-16T17:57:06.478Z,18.90
2018-10-16T17:59:35.130Z,19.73
2018-10-16T18:02:03.824Z,19.33
2018-10-16T18:04:32.558Z,19.70
2018-10-16T18:07:01.193Z,20.33
2018-10-16T18:09:30.019Z,21.50
2018-10-16T18:11:58.802Z,18.73
2018-10-16T18:14:27.473Z,19.90
2018-10-16T18:16:56.156Z,21.03
2018-10-16T18:19:24.972Z,20.50
2018-10-16T18:21:53.654Z,17.37
2018-10-16T18:24:22.379Z,19.67
2018-10-16T18:26:51.189Z,19.03
2018-10-16T18:29:19.893Z,21.33
2018-10-16T18:31:48.678Z,25.37
2018-10-16T18:34:17.501Z,23.10
2018-10-16T18:36:46.261Z,20.77
2018-10-16T18:39:15.190Z,33.07
2018-10-16T18:41:44.025Z,22.87
2018-10-16T18:44:12.736Z,22.30
2018-10-16T18:46:41.412Z,22.13
2018-10-16T18:49:10.104Z,22.10
2018-10-16T18:51:38.888Z,24.97
2018-10-16T18:54:07.711Z,21.77
2018-10-16T18:56:36.512Z,21.50
2018-10-16T18:59:05.206Z,23.20
2018-10-16T19:01:33.876Z,18.77
2018-10-16T19:04:02.561Z,21.23
2018-10-16T19:06:31.343Z,20.20
2018-10-16T19:09:00.212Z,22.63
2018-10-16T19:11:28.730Z,21.50
2018-10-16T19:13:57.447Z,21.93
2018-10-16T19:16:26.120Z,25.87
2018-10-16T19:18:54.828Z,31.47
2018-10-16T19:21:23.476Z,31.10
2018-10-16T19:23:52.244Z,29.20
2018-10-16T19:26:20.941Z,26.80
2018-10-16T19:28:49.676Z,25.90
2018-10-16T19:31:18.487Z,24.13
2018-10-16T19:33:47.306Z,24.77
2018-10-16T19:36:16.159Z,24.13
2018-10-16T19:38:44.926Z,23.87
2018-10-16T19:41:13.761Z,24.43
2018-10-16T19:43:43.396Z,26.03
2018-10-16T19:46:11.965Z,24.53
2018-10-16T19:48:40.754Z,23.70
2018-10-16T19:51:09.543Z,24.37
2018-10-16T19:53:38.153Z,22.60
2018-10-16T19:56:07.088Z,24.23
2018-10-16T19:58:35.755Z,24.87
2018-10-16T20:01:04.477Z,21.87
2018-10-16T20:03:33.249Z,21.20
2018-10-16T20:06:02.104Z,22.00
2018-10-16T20:08:30.895Z,23.17
2018-10-16T20:10:59.715Z,23.53
2018-10-16T20:13:28.549Z,22.40
2018-10-16T20:15:57.116Z,23.07
2018-10-16T20:18:26.020Z,22.47
2018-10-16T20:20:54.747Z,24.60
2018-10-16T20:23:23.530Z,24.33
2018-10-16T20:25:52.797Z,23.20
2018-10-16T20:28:21.585Z,25.00
2018-10-16T20:30:50.168Z,21.73
2018-10-16T20:33:18.937Z,22.33
2018-10-16T20:35:47.661Z,22.20
2018-10-16T20:38:16.209Z,22.27
2018-10-16T20:40:44.909Z,22.13
2018-10-16T20:43:13.875Z,25.03
2018-10-16T20:45:42.501Z,24.47
2018-10-16T20:48:11.279Z,24.33
2018-10-16T20:50:40.103Z,23.90
2018-10-16T20:53:08.896Z,25.63
2018-10-16T20:55:37.697Z,24.00
2018-10-16T20:58:06.325Z,25.40
2018-10-16T21:00:35.197Z,24.20
2018-10-16T21:03:03.776Z,23.07
2018-10-16T21:05:32.696Z,23.90
2018-10-16T21:08:01.456Z,23.70
2018-10-16T21:10:30.320Z,22.90
2018-10-16T21:12:59.156Z,23.13
2018-10-16T21:15:27.923Z,22.27
2018-10-16T21:17:57.135Z,23.20
2018-10-16T21:20:26.027Z,23.10
2018-10-16T21:22:54.887Z,22.57
2018-10-16T21:25:23.558Z,22.70
2018-10-16T21:27:52.232Z,24.27
2018-10-16T21:30:20.920Z,22.03
2018-10-16T21:32:49.465Z,23.57
2018-10-16T21:35:18.247Z,23.10
2018-10-16T21:37:46.842Z,22.20
2018-10-16T21:40:15.636Z,22.60
2018-10-16T21:42:44.412Z,25.73
2018-10-16T21:45:13.165Z,24.30
2018-10-16T21:47:41.820Z,23.00
2018-10-16T21:50:10.527Z,27.10
2018-10-16T21:52:39.192Z,24.67
2018-10-16T21:55:08.057Z,25.37
2018-10-16T21:57:36.533Z,23.73
2018-10-16T22:00:06.094Z,24.03
2018-10-16T22:02:40.046Z,25.10
2018-10-16T22:05:08.755Z,28.87
2018-10-16T22:07:37.384Z,23.17
2018-10-16T22:10:06.608Z,23.33
2018-10-16T22:12:35.195Z,27.10
2018-10-16T22:15:03.862Z,22.77
2018-10-16T22:17:32.694Z,26.23
2018-10-16T22:20:01.332Z,27.63
2018-10-16T22:22:30.021Z,25.73
2018-10-16T22:24:58.630Z,25.70
2018-10-16T22:27:27.426Z,23.87
2018-10-16T22:29:56.192Z,24.60
2018-10-16T22:32:24.759Z,25.07
2018-10-16T22:34:53.615Z,23.30
2018-10-16T22:37:22.389Z,26.87
2018-10-16T22:39:51.056Z,28.37
2018-10-16T22:42:19.731Z,26.20
2018-10-16T22:44:48.432Z,25.20
2018-10-16T22:47:17.310Z,24.20
2018-10-16T22:49:45.984Z,25.57
2018-10-16T22:52:14.669Z,25.17
2018-10-16T22:54:43.234Z,23.93
2018-10-16T22:57:11.992Z,23.33
2018-10-16T22:59:40.877Z,21.47
2018-10-16T23:02:09.604Z,22.43
2018-10-16T23:04:38.380Z,23.30
2018-10-16T23:07:07.221Z,23.63
2018-10-16T23:09:36.013Z,24.50
2018-10-16T23:12:05.228Z,24.93
2018-10-16T23:14:34.036Z,24.20
2018-10-16T23:17:02.934Z,23.10
2018-10-16T23:19:31.704Z,23.93
2018-10-16T23:22:00.449Z,24.70
2018-10-16T23:24:29.277Z,24.63
2018-10-16T23:26:57.953Z,24.40
2018-10-16T23:29:26.794Z,23.57
2018-10-16T23:31:55.569Z,23.30
2018-10-16T23:34:24.437Z,22.93
2018-10-16T23:36:53.226Z,24.03
2018-10-16T23:39:21.909Z,24.77
2018-10-16T23:41:50.678Z,24.40
2018-10-16T23:44:19.504Z,24.10
2018-10-16T23:46:48.168Z,21.67
2018-10-16T23:49:16.855Z,22.53
2018-10-16T23:51:45.511Z,22.63
2018-10-16T23:54:14.355Z,22.13
2018-10-16T23:56:42.904Z,22.20
2018-10-16T23:59:11.655Z,23.00
